Arbor Hill, Iowa
Current Conditions -  °F | °C
As of 11:35 AM on Sunday 23 Nov 2014 (Local Time) from KPRO Reporting Station
Haze Haze  
Wind Chill: 12°   Ceiling: 300
Heat Index: 12°   Visibility: 1.7mi
Dew Point: 12°   Wind: 7mph
Humidity: 99%   Direction: 160°SSE
Pressure: 29.43"   Gusts: NA
Location:  41.5397°N, 94.299°W
Report Text: KPRO 231735Z AUTO 16006KT 1 3/4SM BR OVC003 12/12 A2943 RMK AO2 T01170115
Loading
Personal Weather Stations






























Interactive Weather Map New forecast layout! Learn more

10-Day Weather Forecast

Advertisements
Track Severe Weather on mobile